sensor_id;sensor_type;location;lat;lon;timestamp;P1;durP1;ratioP1;P2;durP2;ratioP2
22675;SDS011;12521;43.310;21.876;2023-04-02T00:00:17;55.0;;;46.0;;
22675;SDS011;12521;43.310;21.876;2023-04-02T00:05:38;48.0;;;41.0;;
22675;SDS011;12521;43.310;21.876;2023-04-02T00:10:28;48.0;;;41.0;;
22675;SDS011;12521;43.310;21.876;2023-04-02T00:15:12;46.0;;;40.0;;
22675;SDS011;12521;43.310;21.876;2023-04-02T00:19:55;46.0;;;40.0;;
22675;SDS011;12521;43.310;21.876;2023-04-02T00:24:41;45.0;;;38.0;;
22675;SDS011;12521;43.310;21.876;2023-04-02T00:29:19;45.0;;;38.0;;
22675;SDS011;12521;43.310;21.876;2023-04-02T00:33:59;42.0;;;34.0;;
22675;SDS011;12521;43.310;21.876;2023-04-02T00:38:49;42.0;;;34.0;;
22675;SDS011;12521;43.310;21.876;2023-04-02T00:43:45;40.0;;;31.0;;
22675;SDS011;12521;43.310;21.876;2023-04-02T00:48:40;40.0;;;31.0;;
22675;SDS011;12521;43.310;21.876;2023-04-02T00:53:44;38.0;;;30.0;;
22675;SDS011;12521;43.310;21.876;2023-04-02T00:58:31;38.0;;;30.0;;
22675;SDS011;12521;43.310;21.876;2023-04-02T01:03:29;37.0;;;30.0;;
22675;SDS011;12521;43.310;21.876;2023-04-02T01:08:19;37.0;;;30.0;;
22675;SDS011;12521;43.310;21.876;2023-04-02T01:13:22;28.0;;;24.0;;
22675;SDS011;12521;43.310;21.876;2023-04-02T01:18:27;28.0;;;24.0;;
22675;SDS011;12521;43.310;21.876;2023-04-02T01:23:28;20.0;;;18.0;;
22675;SDS011;12521;43.310;21.876;2023-04-02T01:28:21;20.0;;;18.0;;
22675;SDS011;12521;43.310;21.876;2023-04-02T01:33:08;20.0;;;17.0;;
22675;SDS011;12521;43.310;21.876;2023-04-02T01:37:53;20.0;;;17.0;;
22675;SDS011;12521;43.310;21.876;2023-04-02T01:42:53;20.0;;;16.0;;
22675;SDS011;12521;43.310;21.876;2023-04-02T01:48:02;20.0;;;16.0;;
22675;SDS011;12521;43.310;21.876;2023-04-02T01:52:55;23.0;;;20.0;;
22675;SDS011;12521;43.310;21.876;2023-04-02T01:57:48;23.0;;;20.0;;
22675;SDS011;12521;43.310;21.876;2023-04-02T02:02:30;26.0;;;24.0;;
22675;SDS011;12521;43.310;21.876;2023-04-02T02:07:15;26.0;;;24.0;;
22675;SDS011;12521;43.310;21.876;2023-04-02T02:11:58;32.0;;;26.0;;
22675;SDS011;12521;43.310;21.876;2023-04-02T02:16:40;32.0;;;26.0;;
22675;SDS011;12521;43.310;21.876;2023-04-02T02:21:30;32.0;;;26.0;;
22675;SDS011;12521;43.310;21.876;2023-04-02T02:26:17;37.0;;;27.0;;
22675;SDS011;12521;43.310;21.876;2023-04-02T02:31:04;37.0;;;27.0;;
22675;SDS011;12521;43.310;21.876;2023-04-02T02:36:00;34.0;;;26.0;;
22675;SDS011;12521;43.310;21.876;2023-04-02T02:41:01;34.0;;;26.0;;
22675;SDS011;12521;43.310;21.876;2023-04-02T02:45:56;30.0;;;26.0;;
22675;SDS011;12521;43.310;21.876;2023-04-02T02:50:36;30.0;;;26.0;;
22675;SDS011;12521;43.310;21.876;2023-04-02T02:55:23;29.0;;;24.0;;
22675;SDS011;12521;43.310;21.876;2023-04-02T03:00:11;29.0;;;24.0;;
22675;SDS011;12521;43.310;21.876;2023-04-02T03:04:54;28.0;;;23.0;;
22675;SDS011;12521;43.310;21.876;2023-04-02T03:09:41;28.0;;;23.0;;
22675;SDS011;12521;43.310;21.876;2023-04-02T03:14:45;26.0;;;23.0;;
22675;SDS011;12521;43.310;21.876;2023-04-02T03:19:47;26.0;;;23.0;;
22675;SDS011;12521;43.310;21.876;2023-04-02T03:24:48;25.0;;;23.0;;
22675;SDS011;12521;43.310;21.876;2023-04-02T03:29:44;25.0;;;23.0;;
22675;SDS011;12521;43.310;21.876;2023-04-02T03:35:00;24.0;;;22.0;;
22675;SDS011;12521;43.310;21.876;2023-04-02T03:40:01;24.0;;;22.0;;
22675;SDS011;12521;43.310;21.876;2023-04-02T03:45:00;23.0;;;22.0;;
22675;SDS011;12521;43.310;21.876;2023-04-02T03:49:54;23.0;;;22.0;;
22675;SDS011;12521;43.310;21.876;2023-04-02T03:54:39;22.0;;;20.0;;
22675;SDS011;12521;43.310;21.876;2023-04-02T03:59:25;22.0;;;20.0;;
22675;SDS011;12521;43.310;21.876;2023-04-02T04:04:18;21.0;;;19.0;;
22675;SDS011;12521;43.310;21.876;2023-04-02T04:09:06;21.0;;;19.0;;
22675;SDS011;12521;43.310;21.876;2023-04-02T04:13:58;22.0;;;20.0;;
22675;SDS011;12521;43.310;21.876;2023-04-02T04:18:54;22.0;;;20.0;;
22675;SDS011;12521;43.310;21.876;2023-04-02T04:23:49;23.0;;;22.0;;
22675;SDS011;12521;43.310;21.876;2023-04-02T04:28:35;23.0;;;22.0;;
22675;SDS011;12521;43.310;21.876;2023-04-02T04:33:38;24.0;;;23.0;;
22675;SDS011;12521;43.310;21.876;2023-04-02T04:38:31;24.0;;;23.0;;
22675;SDS011;12521;43.310;21.876;2023-04-02T04:43:26;25.0;;;24.0;;
22675;SDS011;12521;43.310;21.876;2023-04-02T04:48:35;25.0;;;24.0;;
22675;SDS011;12521;43.310;21.876;2023-04-02T04:53:46;28.0;;;26.0;;
22675;SDS011;12521;43.310;21.876;2023-04-02T04:58:34;28.0;;;26.0;;
22675;SDS011;12521;43.310;21.876;2023-04-02T05:03:44;31.0;;;29.0;;
22675;SDS011;12521;43.310;21.876;2023-04-02T05:08:55;31.0;;;29.0;;
22675;SDS011;12521;43.310;21.876;2023-04-02T05:13:57;34.0;;;32.0;;
22675;SDS011;12521;43.310;21.876;2023-04-02T05:19:00;34.0;;;32.0;;
22675;SDS011;12521;43.310;21.876;2023-04-02T05:23:57;36.0;;;34.0;;
22675;SDS011;12521;43.310;21.876;2023-04-02T05:29:21;36.0;;;34.0;;
22675;SDS011;12521;43.310;21.876;2023-04-02T05:34:12;36.0;;;33.0;;
22675;SDS011;12521;43.310;21.876;2023-04-02T05:39:10;36.0;;;33.0;;
22675;SDS011;12521;43.310;21.876;2023-04-02T05:44:05;35.0;;;32.0;;
22675;SDS011;12521;43.310;21.876;2023-04-02T05:49:19;35.0;;;32.0;;
22675;SDS011;12521;43.310;21.876;2023-04-02T05:54:34;38.0;;;34.0;;
22675;SDS011;12521;43.310;21.876;2023-04-02T06:00:04;38.0;;;34.0;;
22675;SDS011;12521;43.310;21.876;2023-04-02T06:05:36;42.0;;;37.0;;
22675;SDS011;12521;43.310;21.876;2023-04-02T06:10:26;42.0;;;37.0;;
22675;SDS011;12521;43.310;21.876;2023-04-02T06:15:30;34.0;;;30.0;;
22675;SDS011;12521;43.310;21.876;2023-04-02T06:20:17;34.0;;;30.0;;
22675;SDS011;12521;43.310;21.876;2023-04-02T06:25:01;25.0;;;23.0;;
22675;SDS011;12521;43.310;21.876;2023-04-02T06:30:02;25.0;;;23.0;;
22675;SDS011;12521;43.310;21.876;2023-04-02T06:34:56;24.0;;;23.0;;
22675;SDS011;12521;43.310;21.876;2023-04-02T06:39:32;24.0;;;23.0;;
22675;SDS011;12521;43.310;21.876;2023-04-02T06:44:15;24.0;;;23.0;;
22675;SDS011;12521;43.310;21.876;2023-04-02T06:49:09;24.0;;;23.0;;
22675;SDS011;12521;43.310;21.876;2023-04-02T06:53:57;25.0;;;22.0;;
22675;SDS011;12521;43.310;21.876;2023-04-02T06:58:33;25.0;;;22.0;;
22675;SDS011;12521;43.310;21.876;2023-04-02T07:03:14;26.0;;;22.0;;
22675;SDS011;12521;43.310;21.876;2023-04-02T07:08:01;26.0;;;22.0;;
22675;SDS011;12521;43.310;21.876;2023-04-02T07:12:37;28.0;;;24.0;;
22675;SDS011;12521;43.310;21.876;2023-04-02T07:17:15;28.0;;;24.0;;
22675;SDS011;12521;43.310;21.876;2023-04-02T07:21:55;28.0;;;24.0;;
22675;SDS011;12521;43.310;21.876;2023-04-02T07:26:32;30.0;;;27.0;;
22675;SDS011;12521;43.310;21.876;2023-04-02T07:31:17;30.0;;;27.0;;
22675;SDS011;12521;43.310;21.876;2023-04-02T07:36:03;24.0;;;22.0;;
22675;SDS011;12521;43.310;21.876;2023-04-02T07:40:42;24.0;;;22.0;;
22675;SDS011;12521;43.310;21.876;2023-04-02T07:45:19;19.0;;;18.0;;
22675;SDS011;12521;43.310;21.876;2023-04-02T07:49:56;19.0;;;18.0;;
22675;SDS011;12521;43.310;21.876;2023-04-02T07:54:32;21.0;;;20.0;;
22675;SDS011;12521;43.310;21.876;2023-04-02T07:59:09;21.0;;;20.0;;
22675;SDS011;12521;43.310;21.876;2023-04-02T08:03:46;23.0;;;22.0;;
22675;SDS011;12521;43.310;21.876;2023-04-02T08:08:24;23.0;;;22.0;;
22675;SDS011;12521;43.310;21.876;2023-04-02T08:13:01;19.0;;;18.0;;
22675;SDS011;12521;43.310;21.876;2023-04-02T08:17:38;19.0;;;18.0;;
22675;SDS011;12521;43.310;21.876;2023-04-02T08:22:15;15.0;;;13.0;;
22675;SDS011;12521;43.310;21.876;2023-04-02T08:26:52;15.0;;;13.0;;
22675;SDS011;12521;43.310;21.876;2023-04-02T08:31:29;15.0;;;13.0;;
22675;SDS011;12521;43.310;21.876;2023-04-02T08:36:05;15.0;;;12.0;;
22675;SDS011;12521;43.310;21.876;2023-04-02T08:40:53;15.0;;;12.0;;
22675;SDS011;12521;43.310;21.876;2023-04-02T08:45:53;15.0;;;12.0;;
22675;SDS011;12521;43.310;21.876;2023-04-02T08:50:58;15.0;;;12.0;;
22675;SDS011;12521;43.310;21.876;2023-04-02T08:55:57;14.0;;;12.0;;
22675;SDS011;12521;43.310;21.876;2023-04-02T09:00:55;14.0;;;12.0;;
22675;SDS011;12521;43.310;21.876;2023-04-02T09:05:44;14.0;;;12.0;;
22675;SDS011;12521;43.310;21.876;2023-04-02T09:10:36;14.0;;;12.0;;
22675;SDS011;12521;43.310;21.876;2023-04-02T09:15:30;14.0;;;11.0;;
22675;SDS011;12521;43.310;21.876;2023-04-02T09:20:15;14.0;;;11.0;;
22675;SDS011;12521;43.310;21.876;2023-04-02T09:24:58;13.0;;;10.0;;
22675;SDS011;12521;43.310;21.876;2023-04-02T09:29:48;13.0;;;10.0;;
22675;SDS011;12521;43.310;21.876;2023-04-02T09:34:36;12.0;;;9.0;;
22675;SDS011;12521;43.310;21.876;2023-04-02T09:39:17;12.0;;;9.0;;
22675;SDS011;12521;43.310;21.876;2023-04-02T09:44:32;12.0;;;8.0;;
22675;SDS011;12521;43.310;21.876;2023-04-02T09:49:14;12.0;;;8.0;;
22675;SDS011;12521;43.310;21.876;2023-04-02T09:54:12;11.0;;;8.0;;
22675;SDS011;12521;43.310;21.876;2023-04-02T09:59:04;11.0;;;8.0;;
22675;SDS011;12521;43.310;21.876;2023-04-02T10:03:55;10.0;;;7.0;;
22675;SDS011;12521;43.310;21.876;2023-04-02T10:08:38;10.0;;;7.0;;
22675;SDS011;12521;43.310;21.876;2023-04-02T10:13:26;8.0;;;6.0;;
22675;SDS011;12521;43.310;21.876;2023-04-02T10:18:40;8.0;;;6.0;;
22675;SDS011;12521;43.310;21.876;2023-04-02T10:23:35;7.0;;;6.0;;
22675;SDS011;12521;43.310;21.876;2023-04-02T10:28:24;7.0;;;6.0;;
22675;SDS011;12521;43.310;21.876;2023-04-02T10:34:09;8.0;;;7.0;;
22675;SDS011;12521;43.310;21.876;2023-04-02T10:39:20;8.0;;;7.0;;
22675;SDS011;12521;43.310;21.876;2023-04-02T10:44:28;8.0;;;8.0;;
22675;SDS011;12521;43.310;21.876;2023-04-02T10:49:31;8.0;;;8.0;;
22675;SDS011;12521;43.310;21.876;2023-04-02T10:54:42;10.0;;;8.0;;
22675;SDS011;12521;43.310;21.876;2023-04-02T10:59:31;10.0;;;8.0;;
22675;SDS011;12521;43.310;21.876;2023-04-02T11:04:22;11.0;;;8.0;;
22675;SDS011;12521;43.310;21.876;2023-04-02T11:09:25;11.0;;;8.0;;
22675;SDS011;12521;43.310;21.876;2023-04-02T11:14:23;10.0;;;7.0;;
22675;SDS011;12521;43.310;21.876;2023-04-02T11:19:24;10.0;;;7.0;;
22675;SDS011;12521;43.310;21.876;2023-04-02T11:24:25;8.0;;;6.0;;
22675;SDS011;12521;43.310;21.876;2023-04-02T11:29:24;8.0;;;6.0;;
22675;SDS011;12521;43.310;21.876;2023-04-02T11:34:12;8.0;;;6.0;;
22675;SDS011;12521;43.310;21.876;2023-04-02T11:39:50;8.0;;;6.0;;
22675;SDS011;12521;43.310;21.876;2023-04-02T11:44:29;7.0;;;5.0;;
22675;SDS011;12521;43.310;21.876;2023-04-02T11:49:40;7.0;;;5.0;;
22675;SDS011;12521;43.310;21.876;2023-04-02T11:54:39;6.0;;;4.0;;
22675;SDS011;12521;43.310;21.876;2023-04-02T11:59:24;6.0;;;4.0;;
22675;SDS011;12521;43.310;21.876;2023-04-02T12:04:46;4.0;;;3.0;;
22675;SDS011;12521;43.310;21.876;2023-04-02T12:09:48;4.0;;;3.0;;
22675;SDS011;12521;43.310;21.876;2023-04-02T12:14:42;4.0;;;3.0;;
22675;SDS011;12521;43.310;21.876;2023-04-02T12:19:24;4.0;;;3.0;;
22675;SDS011;12521;43.310;21.876;2023-04-02T12:24:16;3.0;;;3.0;;
22675;SDS011;12521;43.310;21.876;2023-04-02T12:29:33;3.0;;;3.0;;
22675;SDS011;12521;43.310;21.876;2023-04-02T12:34:13;4.0;;;3.0;;
22675;SDS011;12521;43.310;21.876;2023-04-02T12:38:59;4.0;;;3.0;;
22675;SDS011;12521;43.310;21.876;2023-04-02T12:43:35;4.0;;;3.0;;
22675;SDS011;12521;43.310;21.876;2023-04-02T12:48:12;4.0;;;3.0;;
22675;SDS011;12521;43.310;21.876;2023-04-02T12:52:52;4.0;;;3.0;;
22675;SDS011;12521;43.310;21.876;2023-04-02T12:57:38;4.0;;;3.0;;
22675;SDS011;12521;43.310;21.876;2023-04-02T13:02:19;4.0;;;3.0;;
22675;SDS011;12521;43.310;21.876;2023-04-02T13:07:02;4.0;;;3.0;;
22675;SDS011;12521;43.310;21.876;2023-04-02T13:11:40;4.0;;;3.0;;
22675;SDS011;12521;43.310;21.876;2023-04-02T13:16:31;4.0;;;4.0;;
22675;SDS011;12521;43.310;21.876;2023-04-02T13:26:30;4.0;;;4.0;;
22675;SDS011;12521;43.310;21.876;2023-04-02T13:31:14;4.0;;;4.0;;
22675;SDS011;12521;43.310;21.876;2023-04-02T13:35:51;5.0;;;4.0;;
22675;SDS011;12521;43.310;21.876;2023-04-02T13:40:28;5.0;;;4.0;;
22675;SDS011;12521;43.310;21.876;2023-04-02T13:45:20;6.0;;;4.0;;
22675;SDS011;12521;43.310;21.876;2023-04-02T13:50:16;6.0;;;4.0;;
22675;SDS011;12521;43.310;21.876;2023-04-02T13:54:59;6.0;;;4.0;;
22675;SDS011;12521;43.310;21.876;2023-04-02T13:59:37;6.0;;;4.0;;
22675;SDS011;12521;43.310;21.876;2023-04-02T14:04:20;5.0;;;3.0;;
22675;SDS011;12521;43.310;21.876;2023-04-02T14:09:21;5.0;;;3.0;;
22675;SDS011;12521;43.310;21.876;2023-04-02T14:14:52;5.0;;;4.0;;
22675;SDS011;12521;43.310;21.876;2023-04-02T14:20:18;5.0;;;4.0;;
22675;SDS011;12521;43.310;21.876;2023-04-02T14:25:37;5.0;;;5.0;;
22675;SDS011;12521;43.310;21.876;2023-04-02T14:30:40;5.0;;;5.0;;
22675;SDS011;12521;43.310;21.876;2023-04-02T14:35:36;4.0;;;4.0;;
22675;SDS011;12521;43.310;21.876;2023-04-02T14:40:25;4.0;;;4.0;;
22675;SDS011;12521;43.310;21.876;2023-04-02T14:45:21;4.0;;;3.0;;
22675;SDS011;12521;43.310;21.876;2023-04-02T14:50:25;4.0;;;3.0;;
22675;SDS011;12521;43.310;21.876;2023-04-02T14:55:18;4.0;;;3.0;;
22675;SDS011;12521;43.310;21.876;2023-04-02T15:00:27;4.0;;;3.0;;
22675;SDS011;12521;43.310;21.876;2023-04-02T15:05:20;4.0;;;3.0;;
22675;SDS011;12521;43.310;21.876;2023-04-02T15:10:27;4.0;;;3.0;;
22675;SDS011;12521;43.310;21.876;2023-04-02T15:15:23;4.0;;;4.0;;
22675;SDS011;12521;43.310;21.876;2023-04-02T15:20:20;4.0;;;4.0;;
22675;SDS011;12521;43.310;21.876;2023-04-02T15:25:12;5.0;;;4.0;;
22675;SDS011;12521;43.310;21.876;2023-04-02T15:30:22;5.0;;;4.0;;
22675;SDS011;12521;43.310;21.876;2023-04-02T15:35:22;6.0;;;4.0;;
22675;SDS011;12521;43.310;21.876;2023-04-02T15:40:38;6.0;;;4.0;;
22675;SDS011;12521;43.310;21.876;2023-04-02T15:45:54;6.0;;;5.0;;
22675;SDS011;12521;43.310;21.876;2023-04-02T15:51:11;6.0;;;5.0;;
22675;SDS011;12521;43.310;21.876;2023-04-02T15:56:25;9.0;;;7.0;;
22675;SDS011;12521;43.310;21.876;2023-04-02T16:01:34;9.0;;;7.0;;
22675;SDS011;12521;43.310;21.876;2023-04-02T16:06:32;12.0;;;9.0;;
22675;SDS011;12521;43.310;21.876;2023-04-02T16:11:40;12.0;;;9.0;;
22675;SDS011;12521;43.310;21.876;2023-04-02T16:16:24;10.0;;;8.0;;
22675;SDS011;12521;43.310;21.876;2023-04-02T16:21:17;10.0;;;8.0;;
22675;SDS011;12521;43.310;21.876;2023-04-02T16:26:24;8.0;;;6.0;;
22675;SDS011;12521;43.310;21.876;2023-04-02T16:32:01;8.0;;;6.0;;
22675;SDS011;12521;43.310;21.876;2023-04-02T16:37:46;21.0;;;14.0;;
22675;SDS011;12521;43.310;21.876;2023-04-02T16:43:24;34.0;;;22.0;;
22675;SDS011;12521;43.310;21.876;2023-04-02T16:48:41;34.0;;;22.0;;
22675;SDS011;12521;43.310;21.876;2023-04-02T16:54:01;37.0;;;26.0;;
22675;SDS011;12521;43.310;21.876;2023-04-02T16:59:10;37.0;;;26.0;;
22675;SDS011;12521;43.310;21.876;2023-04-02T17:04:36;40.0;;;29.0;;
22675;SDS011;12521;43.310;21.876;2023-04-02T17:09:42;40.0;;;29.0;;
22675;SDS011;12521;43.310;21.876;2023-04-02T17:14:33;35.0;;;26.0;;
22675;SDS011;12521;43.310;21.876;2023-04-02T17:19:29;35.0;;;26.0;;
22675;SDS011;12521;43.310;21.876;2023-04-02T17:24:20;30.0;;;24.0;;
22675;SDS011;12521;43.310;21.876;2023-04-02T17:29:18;30.0;;;24.0;;
22675;SDS011;12521;43.310;21.876;2023-04-02T17:34:13;28.0;;;24.0;;
22675;SDS011;12521;43.310;21.876;2023-04-02T17:39:07;28.0;;;24.0;;
22675;SDS011;12521;43.310;21.876;2023-04-02T17:44:25;27.0;;;24.0;;
22675;SDS011;12521;43.310;21.876;2023-04-02T17:49:36;27.0;;;24.0;;
22675;SDS011;12521;43.310;21.876;2023-04-02T17:55:17;28.0;;;23.0;;
22675;SDS011;12521;43.310;21.876;2023-04-02T18:00:43;28.0;;;23.0;;
22675;SDS011;12521;43.310;21.876;2023-04-02T18:05:57;28.0;;;22.0;;
22675;SDS011;12521;43.310;21.876;2023-04-02T18:11:07;28.0;;;22.0;;
22675;SDS011;12521;43.310;21.876;2023-04-02T18:16:24;30.0;;;23.0;;
22675;SDS011;12521;43.310;21.876;2023-04-02T18:21:50;30.0;;;23.0;;
22675;SDS011;12521;43.310;21.876;2023-04-02T18:27:13;33.0;;;24.0;;
22675;SDS011;12521;43.310;21.876;2023-04-02T18:32:41;33.0;;;24.0;;
22675;SDS011;12521;43.310;21.876;2023-04-02T18:38:20;34.0;;;26.0;;
22675;SDS011;12521;43.310;21.876;2023-04-02T18:43:34;35.0;;;27.0;;
22675;SDS011;12521;43.310;21.876;2023-04-02T18:48:51;35.0;;;27.0;;
22675;SDS011;12521;43.310;21.876;2023-04-02T18:53:46;28.0;;;23.0;;
22675;SDS011;12521;43.310;21.876;2023-04-02T18:59:02;28.0;;;23.0;;
22675;SDS011;12521;43.310;21.876;2023-04-02T19:04:21;22.0;;;19.0;;
22675;SDS011;12521;43.310;21.876;2023-04-02T19:09:17;22.0;;;19.0;;
22675;SDS011;12521;43.310;21.876;2023-04-02T19:14:17;20.0;;;18.0;;
22675;SDS011;12521;43.310;21.876;2023-04-02T19:19:08;20.0;;;18.0;;
22675;SDS011;12521;43.310;21.876;2023-04-02T19:24:23;19.0;;;16.0;;
22675;SDS011;12521;43.310;21.876;2023-04-02T19:30:33;19.0;;;16.0;;
22675;SDS011;12521;43.310;21.876;2023-04-02T19:36:34;32.0;;;26.0;;
22675;SDS011;12521;43.310;21.876;2023-04-02T19:41:30;32.0;;;26.0;;
22675;SDS011;12521;43.310;21.876;2023-04-02T19:46:21;45.0;;;35.0;;
22675;SDS011;12521;43.310;21.876;2023-04-02T19:51:01;45.0;;;35.0;;
22675;SDS011;12521;43.310;21.876;2023-04-02T19:55:38;38.0;;;31.0;;
22675;SDS011;12521;43.310;21.876;2023-04-02T20:00:18;38.0;;;31.0;;
22675;SDS011;12521;43.310;21.876;2023-04-02T20:04:55;30.0;;;27.0;;
22675;SDS011;12521;43.310;21.876;2023-04-02T20:09:31;30.0;;;27.0;;
22675;SDS011;12521;43.310;21.876;2023-04-02T20:14:08;23.0;;;20.0;;
22675;SDS011;12521;43.310;21.876;2023-04-02T20:18:45;23.0;;;20.0;;
22675;SDS011;12521;43.310;21.876;2023-04-02T20:23:24;16.0;;;14.0;;
22675;SDS011;12521;43.310;21.876;2023-04-02T20:28:01;16.0;;;14.0;;
22675;SDS011;12521;43.310;21.876;2023-04-02T20:32:38;16.0;;;14.0;;
22675;SDS011;12521;43.310;21.876;2023-04-02T20:37:15;36.0;;;28.0;;
22675;SDS011;12521;43.310;21.876;2023-04-02T20:41:51;36.0;;;28.0;;
22675;SDS011;12521;43.310;21.876;2023-04-02T20:46:28;55.0;;;42.0;;
22675;SDS011;12521;43.310;21.876;2023-04-02T20:51:07;55.0;;;42.0;;
22675;SDS011;12521;43.310;21.876;2023-04-02T20:55:50;66.0;;;50.0;;
22675;SDS011;12521;43.310;21.876;2023-04-02T21:00:26;66.0;;;50.0;;
22675;SDS011;12521;43.310;21.876;2023-04-02T21:05:04;78.0;;;57.0;;
22675;SDS011;12521;43.310;21.876;2023-04-02T21:09:41;78.0;;;57.0;;
22675;SDS011;12521;43.310;21.876;2023-04-02T21:14:17;68.0;;;52.0;;
22675;SDS011;12521;43.310;21.876;2023-04-02T21:18:56;68.0;;;52.0;;
22675;SDS011;12521;43.310;21.876;2023-04-02T21:23:43;58.0;;;46.0;;
22675;SDS011;12521;43.310;21.876;2023-04-02T21:28:22;58.0;;;46.0;;
22675;SDS011;12521;43.310;21.876;2023-04-02T21:33:00;60.0;;;48.0;;
22675;SDS011;12521;43.310;21.876;2023-04-02T21:37:37;60.0;;;48.0;;
22675;SDS011;12521;43.310;21.876;2023-04-02T21:42:14;60.0;;;48.0;;
22675;SDS011;12521;43.310;21.876;2023-04-02T21:46:51;63.0;;;51.0;;
22675;SDS011;12521;43.310;21.876;2023-04-02T21:51:31;63.0;;;51.0;;
22675;SDS011;12521;43.310;21.876;2023-04-02T21:56:15;68.0;;;52.0;;
22675;SDS011;12521;43.310;21.876;2023-04-02T22:01:00;68.0;;;52.0;;
22675;SDS011;12521;43.310;21.876;2023-04-02T22:05:40;72.0;;;54.0;;
22675;SDS011;12521;43.310;21.876;2023-04-02T22:10:17;72.0;;;54.0;;
22675;SDS011;12521;43.310;21.876;2023-04-02T22:14:53;78.0;;;60.0;;
22675;SDS011;12521;43.310;21.876;2023-04-02T22:19:29;78.0;;;60.0;;
22675;SDS011;12521;43.310;21.876;2023-04-02T22:24:11;85.0;;;66.0;;
22675;SDS011;12521;43.310;21.876;2023-04-02T22:28:52;85.0;;;66.0;;
22675;SDS011;12521;43.310;21.876;2023-04-02T22:33:29;71.0;;;54.0;;
22675;SDS011;12521;43.310;21.876;2023-04-02T22:38:08;71.0;;;54.0;;
22675;SDS011;12521;43.310;21.876;2023-04-02T22:42:45;71.0;;;54.0;;
22675;SDS011;12521;43.310;21.876;2023-04-02T22:47:21;57.0;;;42.0;;
22675;SDS011;12521;43.310;21.876;2023-04-02T22:51:57;57.0;;;42.0;;
22675;SDS011;12521;43.310;21.876;2023-04-02T22:56:33;48.0;;;38.0;;
22675;SDS011;12521;43.310;21.876;2023-04-02T23:01:13;48.0;;;38.0;;
22675;SDS011;12521;43.310;21.876;2023-04-02T23:05:59;39.0;;;35.0;;
22675;SDS011;12521;43.310;21.876;2023-04-02T23:10:41;39.0;;;35.0;;
22675;SDS011;12521;43.310;21.876;2023-04-02T23:15:17;40.0;;;36.0;;
22675;SDS011;12521;43.310;21.876;2023-04-02T23:19:53;40.0;;;36.0;;
22675;SDS011;12521;43.310;21.876;2023-04-02T23:24:29;40.0;;;37.0;;
22675;SDS011;12521;43.310;21.876;2023-04-02T23:29:08;40.0;;;37.0;;
22675;SDS011;12521;43.310;21.876;2023-04-02T23:33:45;43.0;;;36.0;;
22675;SDS011;12521;43.310;21.876;2023-04-02T23:38:24;43.0;;;36.0;;
22675;SDS011;12521;43.310;21.876;2023-04-02T23:43:02;43.0;;;36.0;;
22675;SDS011;12521;43.310;21.876;2023-04-02T23:47:39;46.0;;;34.0;;
22675;SDS011;12521;43.310;21.876;2023-04-02T23:52:15;46.0;;;34.0;;
22675;SDS011;12521;43.310;21.876;2023-04-02T23:56:51;42.0;;;31.0;;
